Time;durP1;ratioP1;P1;durP2;ratioP2;P2;SDS_P1;SDS_P2;PMS_P1;PMS_P2;Temp;Humidity;BMP_temperature;BMP_pressure;BME280_temperature;BME280_humidity;BME280_pressure;Samples;Min_cycle;Max_cycle;Signal;HPM_P1;HPM_P2
2022/04/21 00:02:36;;;;;;;3.40;0.82;;;18.00;57.80;;;;;;10453461;28;20072;-59
2022/04/21 00:07:38;;;;;;;4.22;1.27;;;18.00;57.80;;;;;;10454141;28;20025;-58
2022/04/21 00:12:38;;;;;;;1.80;0.95;;;18.00;57.70;;;;;;10460904;28;20071;-59
2022/04/21 00:17:39;;;;;;;2.67;1.50;;;18.00;57.70;;;;;;10461122;28;20064;-59
2022/04/21 00:27:59;;;;;;;1.42;0.80;;;18.00;57.70;;;;;;10461067;28;20036;-58
2022/04/21 00:33:00;;;;;;;2.75;1.00;;;17.90;57.70;;;;;;10460550;28;20497;-59
2022/04/21 00:38:01;;;;;;;1.70;0.98;;;18.00;57.70;;;;;;10458941;28;20103;-58
2022/04/21 00:43:02;;;;;;;1.98;1.13;;;17.90;57.70;;;;;;10459963;28;20485;-59
2022/04/21 00:48:05;;;;;;;1.27;0.85;;;17.90;57.70;;;;;;10460229;28;20029;-59
2022/04/21 00:53:08;;;;;;;1.77;1.00;;;17.90;57.50;;;;;;10458623;28;20037;-59
2022/04/21 00:58:09;;;;;;;2.47;1.30;;;17.90;57.60;;;;;;10460046;28;20488;-59
2022/04/21 01:03:12;;;;;;;1.50;1.00;;;17.90;57.60;;;;;;10458312;28;20063;-59
2022/04/21 01:08:13;;;;;;;2.10;1.10;;;17.90;57.70;;;;;;10459350;28;20040;-57
2022/04/21 01:13:14;;;;;;;2.03;1.00;;;17.90;57.70;;;;;;10459028;28;20481;-58
2022/04/21 01:18:14;;;;;;;2.88;1.08;;;17.90;57.70;;;;;;10456454;28;20117;-59
2022/04/21 01:23:15;;;;;;;2.75;1.30;;;17.90;57.70;;;;;;10460744;28;20079;-58
2022/04/21 01:28:16;;;;;;;1.45;0.90;;;17.90;57.60;;;;;;10458320;28;20535;-56
2022/04/21 01:33:17;;;;;;;3.22;1.05;;;17.90;57.70;;;;;;10457481;28;20060;-59
2022/04/21 01:43:37;;;;;;;1.83;0.97;;;17.90;57.70;;;;;;10457543;28;20049;-59
2022/04/21 01:48:38;;;;;;;2.53;1.55;;;17.80;57.60;;;;;;10457637;28;20446;-59
2022/04/21 01:53:39;;;;;;;3.80;1.35;;;17.90;57.60;;;;;;10456618;28;20041;-60
2022/04/21 01:58:40;;;;;;;2.45;1.20;;;17.80;57.60;;;;;;10457327;28;20473;-59
2022/04/21 02:03:41;;;;;;;2.25;1.38;;;17.80;57.60;;;;;;10455952;28;20032;-59
2022/04/21 02:08:42;;;;;;;2.80;1.13;;;17.80;57.60;;;;;;10456775;28;20158;-60
2022/04/21 02:13:43;;;;;;;1.83;1.10;;;17.80;57.70;;;;;;10456834;28;20107;-59
2022/04/21 02:18:43;;;;;;;2.25;1.10;;;17.80;57.50;;;;;;10456643;28;20035;-60
2022/04/21 02:23:44;;;;;;;2.65;1.35;;;17.80;58.20;;;;;;10465502;28;20055;-59
2022/04/21 02:28:45;;;;;;;2.92;1.17;;;17.80;57.70;;;;;;10456061;28;20108;-58
2022/04/21 02:33:45;;;;;;;1.88;1.10;;;17.80;57.70;;;;;;10454509;28;20511;-58
2022/04/21 02:38:46;;;;;;;1.73;1.17;;;17.80;57.60;;;;;;10455712;28;20056;-58
2022/04/21 02:43:47;;;;;;;1.80;1.23;;;17.80;57.60;;;;;;10454165;28;20068;-59
2022/04/21 02:48:47;;;;;;;2.20;1.00;;;17.70;57.60;;;;;;10455096;28;20056;-59
2022/04/21 02:59:07;;;;;;;2.15;1.05;;;17.70;57.60;;;;;;10453959;28;20057;-58
2022/04/21 03:04:09;;;;;;;1.27;0.90;;;17.70;57.60;;;;;;10453726;28;20033;-59
2022/04/21 03:09:09;;;;;;;2.25;1.13;;;17.70;58.30;;;;;;10453454;28;20021;-58
2022/04/21 03:14:10;;;;;;;1.38;1.20;;;17.70;57.50;;;;;;10454535;28;20064;-58
2022/04/21 03:19:12;;;;;;;2.45;1.15;;;17.70;57.60;;;;;;10454223;28;20116;-58
2022/04/21 03:24:19;;;;;;;2.75;1.10;;;17.70;57.60;;;;;;10456282;28;20021;-58
2022/04/21 03:29:20;;;;;;;2.13;1.33;;;17.60;57.50;;;;;;10453983;28;20033;-58
2022/04/21 03:34:21;;;;;;;3.60;1.17;;;17.60;57.50;;;;;;10453909;28;20040;-58
2022/04/21 03:39:22;;;;;;;1.63;1.10;;;17.60;57.50;;;;;;10452054;28;20068;-58
2022/04/21 03:44:23;;;;;;;2.17;1.17;;;17.60;57.50;;;;;;10460905;28;20096;-58
2022/04/21 03:49:29;;;;;;;3.22;1.50;;;17.60;57.50;;;;;;10467264;28;20029;-57
2022/04/21 03:54:30;;;;;;;1.60;1.10;;;17.60;57.50;;;;;;10467776;28;20107;-57
2022/04/21 03:59:30;;;;;;;2.17;1.10;;;17.60;57.50;;;;;;10466924;28;20556;-58
2022/04/21 04:04:35;;;;;;;1.50;1.13;;;17.60;57.40;;;;;;10466636;28;20036;-57
2022/04/21 04:14:55;;;;;;;1.60;1.00;;;17.60;57.50;;;;;;10465970;28;20045;-58
2022/04/21 04:19:56;;;;;;;1.95;1.30;;;17.50;57.50;;;;;;10463453;28;20294;-58
2022/04/21 04:24:56;;;;;;;1.88;1.38;;;17.50;57.40;;;;;;10477373;28;20445;-58
2022/04/21 04:29:57;;;;;;;3.05;1.45;;;17.50;57.40;;;;;;10461988;28;20068;-58
2022/04/21 04:34:58;;;;;;;2.55;1.23;;;17.50;57.40;;;;;;10460481;28;20038;-59
2022/04/21 04:39:59;;;;;;;1.45;1.02;;;17.50;57.50;;;;;;10482323;28;20067;-59
2022/04/21 04:50:20;;;;;;;2.78;1.48;;;17.50;57.40;;;;;;10465996;28;20037;-57
2022/04/21 04:55:20;;;;;;;2.35;1.50;;;17.50;57.40;;;;;;10481718;28;20036;-59
2022/04/21 05:00:21;;;;;;;3.45;1.20;;;17.50;57.50;;;;;;10448398;28;20068;-54
2022/04/21 05:05:22;;;;;;;5.15;1.80;;;17.50;57.70;;;;;;10468157;28;20033;-56
2022/04/21 05:10:23;;;;;;;3.88;1.50;;;17.60;58.60;;;;;;10495585;28;20044;-55
2022/04/21 05:15:25;;;;;;;2.05;1.52;;;17.60;58.20;;;;;;10476095;28;20397;-56
2022/04/21 05:20:27;;;;;;;5.65;1.55;;;17.60;58.00;;;;;;10478731;28;20499;-58
2022/04/21 05:25:31;;;;;;;4.65;1.52;;;17.60;58.00;;;;;;10466478;28;20032;-56
2022/04/21 05:35:54;;;;;;;4.32;2.10;;;17.60;58.20;;;;;;10458900;28;20033;-57
2022/04/21 05:40:55;;;;;;;3.67;2.00;;;17.60;58.20;;;;;;10458321;28;20043;-55
2022/04/21 05:45:56;;;;;;;8.95;2.38;;;17.60;58.40;;;;;;10457300;28;20218;-57
2022/04/21 05:50:57;;;;;;;15.80;2.85;;;17.60;58.70;;;;;;10457850;28;20039;-57
2022/04/21 05:55:58;;;;;;;12.23;3.53;;;17.60;60.10;;;;;;10457847;28;20397;-57
2022/04/21 06:01:09;;;;;;;14.82;3.13;;;17.60;59.20;;;;;;10456334;28;20025;-57
2022/04/21 06:06:10;;;;;;;13.02;3.92;;;17.60;59.00;;;;;;10456476;28;20108;-59
2022/04/21 06:11:14;;;;;;;18.17;3.80;;;17.60;58.70;;;;;;10455605;28;20503;-59
2022/04/21 06:16:15;;;;;;;20.73;4.13;;;17.60;58.80;;;;;;10457234;28;20028;-58
2022/04/21 06:21:16;;;;;;;13.50;3.95;;;17.60;59.00;;;;;;10462189;28;20032;-58
2022/04/21 06:26:17;;;;;;;12.02;3.22;;;17.60;59.00;;;;;;10457825;28;20056;-56
2022/04/21 06:31:17;;;;;;;11.38;2.92;;;17.60;58.90;;;;;;10454957;28;20586;-58
2022/04/21 06:36:18;;;;;;;12.70;3.38;;;17.50;58.80;;;;;;10456338;28;20060;-59
2022/04/21 06:41:19;;;;;;;9.73;3.95;;;17.50;59.20;;;;;;10456867;28;20120;-57
2022/04/21 06:51:40;;;;;;;6.95;3.75;;;17.80;59.10;;;;;;10452692;28;20045;-56
2022/04/21 06:56:43;;;;;;;8.10;2.67;;;17.70;59.60;;;;;;10452589;28;20033;-57
2022/04/21 07:01:47;;;;;;;7.22;2.60;;;17.60;59.50;;;;;;10454424;28;20116;-57
2022/04/21 07:06:48;;;;;;;6.95;2.55;;;17.60;59.40;;;;;;10454435;28;20028;-56
2022/04/21 07:11:49;;;;;;;5.13;1.95;;;17.50;59.30;;;;;;10454484;28;20112;-56
2022/04/21 07:16:50;;;;;;;6.93;2.60;;;17.50;59.30;;;;;;10454102;28;20036;-57
2022/04/21 07:21:50;;;;;;;5.88;1.88;;;17.50;59.10;;;;;;10479558;28;20433;-57
2022/04/21 07:26:51;;;;;;;6.25;2.05;;;17.50;59.20;;;;;;10454081;28;20022;-57
2022/04/21 07:31:52;;;;;;;3.85;1.95;;;17.50;59.00;;;;;;10452545;28;20134;-56
2022/04/21 07:36:52;;;;;;;6.55;2.05;;;17.50;59.00;;;;;;10453821;28;20075;-57
2022/04/21 07:41:53;;;;;;;8.07;2.63;;;17.50;58.90;;;;;;10453598;28;20469;-57
2022/04/21 07:46:55;;;;;;;5.88;2.25;;;17.50;58.80;;;;;;10453498;28;20537;-56
2022/04/21 07:53:13;;;;;;;8.57;2.45;;;17.50;58.90;;;;;;10452516;28;20091;-56
2022/04/21 07:57:16;;;;;;;4.43;1.98;;;17.50;58.80;;;;;;10453285;28;20499;-57
2022/04/21 08:02:17;;;;;;;8.20;2.42;;;17.50;58.80;;;;;;10452142;28;20037;-56
2022/04/21 08:07:18;;;;;;;4.55;2.28;;;17.50;58.70;;;;;;10453236;28;20488;-56
2022/04/21 08:12:19;;;;;;;4.95;2.28;;;17.60;58.70;;;;;;10452107;28;20056;-55
2022/04/21 08:17:19;;;;;;;4.38;2.35;;;17.60;58.70;;;;;;10452965;28;20033;-56
2022/04/21 08:22:20;;;;;;;3.35;1.83;;;17.60;58.70;;;;;;10462885;28;20036;-56
2022/04/21 08:32:43;;;;;;;5.43;2.20;;;17.60;58.60;;;;;;10458458;28;20076;-57
2022/04/21 08:37:45;;;;;;;5.25;2.05;;;17.60;58.60;;;;;;10459684;28;20290;-56
2022/04/21 08:42:46;;;;;;;3.58;2.10;;;17.60;58.60;;;;;;10460262;28;20029;-56
2022/04/21 08:47:48;;;;;;;3.03;1.63;;;17.60;58.70;;;;;;10459982;28;20466;-55
2022/04/21 08:52:49;;;;;;;6.85;1.60;;;17.60;58.60;;;;;;10475208;28;20025;-57
2022/04/21 08:57:50;;;;;;;3.17;1.80;;;17.60;58.60;;;;;;10459722;28;20119;-57
2022/04/21 09:02:50;;;;;;;4.50;1.67;;;17.70;58.70;;;;;;10459387;28;20112;-56
2022/04/21 09:07:52;;;;;;;2.65;1.38;;;17.70;58.50;;;;;;10459561;28;20021;-57
2022/04/21 09:12:56;;;;;;;2.92;1.40;;;17.70;58.60;;;;;;10459323;28;20037;-57
2022/04/21 09:18:07;;;;;;;4.35;1.40;;;17.70;59.10;;;;;;10459114;28;20392;-55
2022/04/21 09:23:10;;;;;;;4.43;1.80;;;17.70;58.50;;;;;;10468807;28;20123;-56
2022/04/21 09:28:32;;;;;;;4.03;1.48;;;17.70;58.50;;;;;;10457782;28;20423;-55
2022/04/21 09:33:41;;;;;;;2.10;1.35;;;17.70;58.40;;;;;;10457963;28;20052;-57
2022/04/21 09:38:55;;;;;;;3.72;1.73;;;17.80;58.50;;;;;;10457380;28;20459;-55
2022/04/21 09:49:44;;;;;;;3.33;1.67;;;17.80;58.40;;;;;;10457633;28;20041;-57
2022/04/21 09:54:46;;;;;;;1.73;1.02;;;17.80;58.40;;;;;;10457248;28;20017;-56
2022/04/21 09:59:47;;;;;;;3.85;1.65;;;17.80;58.30;;;;;;10457482;28;20029;-56
2022/04/21 10:04:49;;;;;;;3.08;1.30;;;17.80;58.40;;;;;;10457093;28;20108;-55
2022/04/21 10:09:50;;;;;;;2.33;1.45;;;17.90;58.30;;;;;;10455581;28;20075;-56
2022/04/21 10:14:52;;;;;;;1.80;1.10;;;17.90;58.30;;;;;;10455846;28;20055;-55
2022/04/21 10:19:53;;;;;;;1.60;0.90;;;17.90;58.20;;;;;;10456252;28;20385;-55
2022/04/21 10:24:58;;;;;;;2.90;1.30;;;17.90;58.20;;;;;;10466387;28;20761;-56
2022/04/21 10:29:59;;;;;;;2.70;1.45;;;18.00;58.20;;;;;;10454552;28;20155;-55
2022/04/21 10:34:59;;;;;;;3.28;1.20;;;18.00;58.10;;;;;;10455683;28;20444;-56
2022/04/21 10:40:14;;;;;;;2.08;1.45;;;18.00;58.00;;;;;;10454101;28;20033;-57
2022/04/21 10:45:15;;;;;;;2.67;1.20;;;18.10;58.10;;;;;;10455911;28;20381;-56
2022/04/21 10:50:19;;;;;;;2.78;1.23;;;18.10;58.00;;;;;;10455035;28;20037;-56
2022/04/21 11:00:40;;;;;;;4.03;1.10;;;18.20;58.00;;;;;;10455353;28;20037;-57
2022/04/21 11:05:41;;;;;;;4.70;1.25;;;18.20;58.00;;;;;;10454757;28;20049;-56
2022/04/21 11:10:43;;;;;;;2.45;1.17;;;18.20;58.00;;;;;;10454095;28;20381;-56
2022/04/21 11:15:44;;;;;;;2.45;1.30;;;18.30;58.00;;;;;;10454759;28;20538;-56
2022/04/21 11:20:48;;;;;;;1.58;0.80;;;18.30;58.00;;;;;;10455459;28;20095;-55
2022/04/21 11:25:50;;;;;;;1.77;1.00;;;18.30;58.00;;;;;;10461970;28;20036;-56
2022/04/21 11:30:59;;;;;;;1.05;0.65;;;18.30;58.00;;;;;;10454004;28;20385;-57
2022/04/21 11:36:11;;;;;;;1.83;1.00;;;18.30;58.10;;;;;;10453771;28;20036;-56
2022/04/21 11:41:14;;;;;;;3.13;1.05;;;18.30;58.00;;;;;;10453334;28;20078;-56
2022/04/21 11:46:14;;;;;;;2.17;1.08;;;18.40;58.00;;;;;;10452301;28;20067;-57
2022/04/21 11:51:25;;;;;;;2.25;1.10;;;18.40;58.00;;;;;;10453717;28;20037;-56
2022/04/21 11:56:27;;;;;;;1.83;1.17;;;18.40;58.00;;;;;;10451910;28;20043;-57
2022/04/21 12:06:56;;;;;;;2.40;1.10;;;18.40;58.00;;;;;;10459793;28;20036;-57
2022/04/21 12:12:00;;;;;;;2.13;1.45;;;18.50;58.10;;;;;;10461891;28;20103;-57
2022/04/21 12:17:03;;;;;;;2.90;1.38;;;18.40;58.10;;;;;;10460100;28;20033;-57
2022/04/21 12:22:31;;;;;;;1.45;0.60;;;18.50;58.20;;;;;;10470874;28;20112;-57
2022/04/21 12:27:35;;;;;;;1.33;0.95;;;18.50;58.10;;;;;;10460879;28;20082;-55
2022/04/21 12:32:39;;;;;;;1.90;0.80;;;18.50;58.10;;;;;;10460471;28;20060;-57
2022/04/21 12:43:11;;;;;;;1.55;0.90;;;18.70;59.10;;;;;;10459358;28;20068;-57
2022/04/21 12:48:24;;;;;;;2.05;1.42;;;18.80;58.90;;;;;;10458903;28;20050;-55
2022/04/21 12:53:30;;;;;;;1.73;1.25;;;18.80;59.10;;;;;;10458573;28;20029;-56
2022/04/21 12:58:31;;;;;;;2.35;0.88;;;18.80;59.50;;;;;;10459922;28;20029;-57
2022/04/21 13:03:32;;;;;;;1.13;0.77;;;18.80;59.60;;;;;;10458420;28;20481;-56
2022/04/21 13:08:33;;;;;;;2.00;0.80;;;18.90;59.80;;;;;;10459342;28;20017;-57
2022/04/21 13:13:36;;;;;;;1.52;0.82;;;18.80;59.80;;;;;;10459246;28;20065;-57
2022/04/21 13:18:36;;;;;;;1.95;1.00;;;18.90;59.90;;;;;;10457934;28;20080;-55
2022/04/21 13:23:37;;;;;;;2.35;0.80;;;18.90;59.80;;;;;;10468982;28;20065;-57
2022/04/21 13:28:38;;;;;;;2.90;1.00;;;18.90;59.80;;;;;;10458751;28;20017;-56
2022/04/21 13:33:38;;;;;;;1.50;0.80;;;18.90;59.70;;;;;;10457010;28;20057;-57
2022/04/21 13:38:39;;;;;;;2.13;0.80;;;18.80;60.10;;;;;;10458142;28;20151;-57
2022/04/21 13:43:39;;;;;;;1.58;0.63;;;18.80;60.10;;;;;;10457996;28;20060;-57
2022/04/21 13:48:40;;;;;;;1.33;0.70;;;18.80;60.00;;;;;;10457513;28;20021;-57
2022/04/21 13:53:41;;;;;;;1.88;0.80;;;18.90;60.00;;;;;;10457565;28;20469;-57
2022/04/21 13:58:42;;;;;;;1.17;0.70;;;18.90;59.90;;;;;;10457161;28;20116;-57
2022/04/21 14:03:44;;;;;;;2.20;0.90;;;18.90;60.40;;;;;;10457150;28;20057;-57
2022/04/21 14:08:44;;;;;;;1.17;0.77;;;18.90;59.90;;;;;;10457331;28;20450;-57
2022/04/21 14:13:46;;;;;;;1.02;0.70;;;18.90;60.00;;;;;;10456589;28;20021;-57
2022/04/21 14:18:47;;;;;;;1.33;0.70;;;18.80;60.00;;;;;;10456692;28;20064;-56
2022/04/21 14:23:47;;;;;;;1.90;1.00;;;18.80;60.00;;;;;;10466551;28;20501;-57
2022/04/21 14:28:48;;;;;;;1.00;0.80;;;18.80;60.10;;;;;;10456056;28;20845;-56
2022/04/21 14:33:49;;;;;;;1.65;0.77;;;18.80;60.10;;;;;;10455771;28;20052;-57
2022/04/21 14:44:10;;;;;;;0.70;0.57;;;18.80;60.10;;;;;;10455720;28;20136;-57
2022/04/21 14:49:13;;;;;;;1.23;0.60;;;18.80;60.10;;;;;;10455374;28;20067;-57
2022/04/21 14:54:14;;;;;;;1.92;0.82;;;18.80;60.10;;;;;;10455339;28;20041;-57
2022/04/21 14:59:15;;;;;;;1.15;0.60;;;18.80;60.10;;;;;;10454914;28;20047;-56
2022/04/21 15:04:15;;;;;;;1.77;0.82;;;18.80;60.10;;;;;;10454937;28;20033;-57
2022/04/21 15:09:16;;;;;;;1.23;0.63;;;18.80;60.20;;;;;;10454756;28;20065;-57
2022/04/21 15:14:17;;;;;;;4.25;0.80;;;18.80;60.20;;;;;;10453130;28;20481;-57
2022/04/21 15:19:18;;;;;;;0.93;0.70;;;18.80;60.20;;;;;;10436826;28;20035;-57
2022/04/21 15:24:19;;;;;;;2.03;0.70;;;18.70;60.20;;;;;;10461118;28;20041;-57
2022/04/21 15:29:20;;;;;;;1.35;0.80;;;18.70;60.20;;;;;;10451891;28;20466;-56
2022/04/21 15:34:20;;;;;;;1.30;0.63;;;18.70;60.10;;;;;;10453686;28;20123;-57
2022/04/21 15:39:22;;;;;;;1.73;0.70;;;18.70;60.00;;;;;;10453874;28;20060;-57
2022/04/21 15:44:22;;;;;;;2.75;1.20;;;18.70;60.00;;;;;;10452535;28;20347;-56
2022/04/21 15:49:23;;;;;;;8.68;3.38;;;18.70;60.10;;;;;;10469768;28;20021;-58
2022/04/21 15:59:46;;;;;;;6.25;2.70;;;18.60;60.20;;;;;;10454582;28;20040;-58
2022/04/21 16:04:47;;;;;;;6.78;3.17;;;18.60;60.10;;;;;;10453604;28;20053;-58
2022/04/21 16:09:48;;;;;;;7.80;3.30;;;18.60;60.10;;;;;;10453233;28;20101;-57
2022/04/21 16:14:49;;;;;;;35.72;9.15;;;18.60;59.50;;;;;;10452875;28;20037;-57
2022/04/21 16:19:50;;;;;;;25.98;7.05;;;18.60;61.70;;;;;;10468490;28;20078;-57
2022/04/21 16:24:50;;;;;;;27.58;8.30;;;18.90;63.60;;;;;;10462312;28;20029;-58
2022/04/21 16:29:52;;;;;;;47.75;11.05;;;18.90;62.20;;;;;;10452702;28;20558;-56
2022/04/21 16:34:53;;;;;;;22.35;6.78;;;19.00;62.40;;;;;;10452510;28;20075;-58
2022/04/21 16:39:54;;;;;;;21.73;6.35;;;18.80;60.30;;;;;;10452645;28;20078;-58
2022/04/21 16:44:55;;;;;;;26.88;6.07;;;18.70;60.50;;;;;;10455125;28;20155;-58
2022/04/21 16:49:55;;;;;;;22.25;7.20;;;18.60;60.70;;;;;;10460573;28;20057;-58
2022/04/21 16:54:57;;;;;;;22.02;6.50;;;18.60;61.00;;;;;;10460236;28;20191;-56
2022/04/21 16:59:57;;;;;;;23.08;5.47;;;18.60;61.10;;;;;;10457592;28;20021;-57
2022/04/21 17:05:00;;;;;;;23.42;6.05;;;18.60;60.90;;;;;;10458707;28;20044;-59
2022/04/21 17:10:00;;;;;;;18.38;5.88;;;18.50;61.00;;;;;;10465104;28;20068;-58
2022/04/21 17:15:02;;;;;;;13.73;5.38;;;18.60;61.10;;;;;;10475452;28;20052;-58
2022/04/21 17:20:05;;;;;;;18.55;5.28;;;18.50;61.10;;;;;;10469805;28;20440;-58
2022/04/21 17:25:06;;;;;;;13.90;4.88;;;18.50;61.30;;;;;;10460319;28;20126;-58
2022/04/21 17:30:07;;;;;;;22.35;6.70;;;18.50;61.30;;;;;;10457358;28;20041;-59
2022/04/21 17:35:08;;;;;;;16.38;4.90;;;18.50;61.30;;;;;;10458582;28;20442;-59
2022/04/21 17:40:09;;;;;;;13.32;5.40;;;18.50;61.30;;;;;;10458627;28;20028;-62
2022/04/21 17:45:10;;;;;;;15.80;4.97;;;18.50;61.40;;;;;;10457224;28;20033;-58
2022/04/21 17:50:11;;;;;;;11.00;4.97;;;18.50;61.40;;;;;;10457353;28;20029;-57
2022/04/21 17:55:11;;;;;;;12.40;5.47;;;18.50;61.40;;;;;;10456787;28;20545;-58
2022/04/21 18:00:13;;;;;;;9.20;3.92;;;18.50;61.80;;;;;;10465392;28;20430;-56
2022/04/21 18:05:14;;;;;;;20.95;4.50;;;18.50;61.20;;;;;;10454118;28;20052;-58
2022/04/21 18:10:15;;;;;;;16.48;5.13;;;18.50;61.40;;;;;;10456956;28;20067;-57
2022/04/21 18:15:15;;;;;;;17.20;4.60;;;18.50;61.70;;;;;;10456055;28;20041;-58
2022/04/21 18:20:16;;;;;;;15.77;4.00;;;18.50;61.80;;;;;;10479730;28;20521;-57
2022/04/21 18:25:17;;;;;;;12.73;4.85;;;18.50;61.80;;;;;;10455350;28;20029;-58
2022/04/21 18:30:18;;;;;;;11.68;4.25;;;18.60;61.90;;;;;;10469203;28;20449;-58
2022/04/21 18:35:19;;;;;;;12.13;5.25;;;18.60;61.90;;;;;;10487181;28;20107;-58
2022/04/21 18:40:20;;;;;;;9.13;3.55;;;18.60;62.00;;;;;;10455967;28;20064;-57
2022/04/21 18:45:20;;;;;;;10.82;4.28;;;18.60;62.00;;;;;;10454246;28;20064;-58
2022/04/21 18:50:21;;;;;;;11.02;3.70;;;18.60;62.00;;;;;;10454122;28;20086;-58
2022/04/21 18:55:22;;;;;;;8.70;4.28;;;18.60;62.70;;;;;;10448747;28;20032;-57
2022/04/21 19:00:23;;;;;;;10.00;3.20;;;18.50;61.90;;;;;;10452435;28;20037;-58
2022/04/21 19:05:28;;;;;;;10.70;4.45;;;18.50;62.50;;;;;;10452589;28;20021;-57
2022/04/21 19:10:30;;;;;;;10.05;3.55;;;18.50;61.90;;;;;;10453999;28;20104;-58
2022/04/21 19:15:31;;;;;;;11.23;3.25;;;18.50;61.80;;;;;;10453630;28;20033;-59
2022/04/21 19:20:35;;;;;;;6.80;2.83;;;18.50;61.70;;;;;;10454415;28;20373;-58
2022/04/21 19:25:36;;;;;;;11.50;3.28;;;18.50;61.90;;;;;;10454000;28;20040;-58
2022/04/21 19:30:37;;;;;;;12.15;3.15;;;18.50;61.80;;;;;;10453689;28;20528;-58
2022/04/21 19:35:38;;;;;;;20.17;5.65;;;18.50;61.80;;;;;;10449812;28;20028;-59
2022/04/21 19:40:39;;;;;;;11.10;4.15;;;18.50;61.70;;;;;;10456262;28;20041;-58
2022/04/21 19:45:40;;;;;;;9.57;3.30;;;18.50;61.60;;;;;;10472090;28;20025;-59
2022/04/21 19:50:41;;;;;;;6.65;2.97;;;18.40;61.50;;;;;;10471587;28;20392;-58
2022/04/21 19:55:41;;;;;;;8.73;2.80;;;18.40;61.60;;;;;;10463737;28;20057;-58
2022/04/21 20:00:42;;;;;;;10.25;2.53;;;18.40;61.50;;;;;;10456162;28;20108;-59
2022/04/21 20:11:02;;;;;;;7.97;3.20;;;18.40;61.50;;;;;;10462788;28;20115;-57
2022/04/21 20:16:03;;;;;;;5.53;2.38;;;18.40;61.40;;;;;;10450882;28;20033;-57
2022/04/21 20:26:39;;;;;;;6.93;2.97;;;18.40;61.30;;;;;;10470962;28;20037;-58
2022/04/21 20:31:40;;;;;;;5.55;2.58;;;18.40;61.40;;;;;;10457453;28;20051;-58
2022/04/21 20:36:41;;;;;;;4.57;2.20;;;18.40;61.30;;;;;;10458122;28;20036;-58
2022/04/21 20:41:42;;;;;;;7.93;2.50;;;18.40;61.30;;;;;;10460676;28;20033;-58
2022/04/21 20:46:42;;;;;;;5.60;2.55;;;18.40;61.20;;;;;;10460208;28;20029;-58
2022/04/21 20:51:43;;;;;;;5.68;2.30;;;18.40;61.20;;;;;;10459313;28;20020;-58
2022/04/21 20:56:44;;;;;;;6.95;2.75;;;18.40;61.10;;;;;;10460245;28;20033;-58
2022/04/21 21:01:46;;;;;;;3.50;2.20;;;18.40;61.10;;;;;;10459760;28;20041;-58
2022/04/21 21:12:10;;;;;;;4.63;2.38;;;18.30;61.60;;;;;;10459783;28;20045;-58
2022/04/21 21:17:11;;;;;;;5.88;2.20;;;18.30;61.00;;;;;;10459293;28;20411;-58
2022/04/21 21:22:12;;;;;;;5.68;2.10;;;18.30;60.90;;;;;;10469340;28;20127;-58
2022/04/21 21:27:13;;;;;;;3.53;1.90;;;18.30;60.90;;;;;;10458835;28;20024;-57
2022/04/21 21:32:13;;;;;;;5.32;2.97;;;18.30;60.90;;;;;;10459046;28;20041;-58
2022/04/21 21:37:14;;;;;;;5.70;1.77;;;18.30;60.90;;;;;;10457808;28;20056;-57
2022/04/21 21:42:15;;;;;;;3.95;2.40;;;18.30;61.00;;;;;;10458415;28;20086;-57
2022/04/21 21:47:16;;;;;;;3.45;2.38;;;18.30;61.00;;;;;;10458301;28;20025;-57
2022/04/21 21:57:35;;;;;;;3.53;1.53;;;18.30;61.00;;;;;;10458274;28;20472;-57
2022/04/21 22:02:36;;;;;;;3.83;1.90;;;18.30;61.00;;;;;;10457465;28;20029;-57
2022/04/21 22:07:37;;;;;;;5.65;1.92;;;18.30;60.90;;;;;;10457093;28;20120;-57
2022/04/21 22:12:41;;;;;;;4.07;1.67;;;18.30;60.70;;;;;;10455966;28;20035;-57
2022/04/21 22:17:42;;;;;;;3.80;1.55;;;18.30;60.60;;;;;;10457058;28;20400;-57
2022/04/21 22:22:57;;;;;;;4.13;1.70;;;18.20;60.50;;;;;;10467136;28;20069;-57
2022/04/21 22:27:58;;;;;;;4.47;1.95;;;18.20;60.50;;;;;;10455287;28;20036;-57
2022/04/21 22:32:59;;;;;;;3.10;1.88;;;18.30;60.50;;;;;;10455911;28;20405;-56
2022/04/21 22:37:59;;;;;;;4.25;1.80;;;18.20;60.50;;;;;;10456363;28;20032;-57
2022/04/21 22:43:00;;;;;;;3.63;2.00;;;18.30;60.50;;;;;;10456037;28;20509;-56
2022/04/21 22:48:02;;;;;;;3.30;2.40;;;18.20;60.40;;;;;;10453469;28;20115;-56
2022/04/21 22:53:04;;;;;;;3.97;1.75;;;18.20;60.40;;;;;;10455855;28;20499;-58
2022/04/21 22:58:04;;;;;;;2.70;1.67;;;18.20;60.40;;;;;;10454099;28;20127;-56
2022/04/21 23:03:05;;;;;;;2.83;1.90;;;18.20;60.30;;;;;;10455324;28;20029;-57
2022/04/21 23:08:07;;;;;;;3.33;1.77;;;18.20;60.20;;;;;;10453637;28;20053;-57
2022/04/21 23:18:27;;;;;;;3.30;1.60;;;18.20;60.20;;;;;;10454591;28;20045;-57
2022/04/21 23:23:28;;;;;;;3.78;1.52;;;18.20;60.10;;;;;;10464750;28;20099;-57
2022/04/21 23:28:29;;;;;;;2.08;1.50;;;18.10;60.00;;;;;;10452428;28;20032;-57
2022/04/21 23:33:29;;;;;;;2.78;1.83;;;18.10;59.90;;;;;;10452888;28;20484;-57
2022/04/21 23:38:30;;;;;;;3.10;1.48;;;18.10;59.90;;;;;;10454055;28;20061;-57
2022/04/21 23:43:31;;;;;;;3.53;1.40;;;18.10;59.90;;;;;;10453514;28;20025;-57
2022/04/21 23:48:32;;;;;;;3.60;1.88;;;18.10;59.90;;;;;;10453774;28;20512;-58
2022/04/21 23:53:37;;;;;;;3.25;1.38;;;18.10;59.90;;;;;;10453780;28;20432;-57
2022/04/21 23:58:40;;;;;;;4.10;1.50;;;18.10;59.90;;;;;;10453987;28;20112;-56
